Time;durP1;ratioP1;P1;durP2;ratioP2;P2;SDS_P1;SDS_P2;PMS_P1;PMS_P2;Temp;Humidity;BMP_temperature;BMP_pressure;BME280_temperature;BME280_humidity;BME280_pressure;Samples;Min_cycle;Max_cycle;Signal;HPM_P1;HPM_P2
2022/10/09 07:22:38;;;;;;;;;9.50;8.25;;;;;8.95;75.50;101940.38;5128080;27;49701;-78
2022/10/09 07:25:05;;;;;;;;;8.00;8.00;;;;;9.16;75.09;101957.06;5093402;27;49972;-76
2022/10/09 07:27:30;;;;;;;;;13.00;9.00;;;;;8.88;74.26;101907.78;5103187;27;49796;-79
2022/10/09 07:29:55;;;;;;;;;6.25;6.25;;;;;8.70;74.31;101876.41;5099335;27;49775;-74
2022/10/09 07:32:21;;;;;;;;;6.25;6.25;;;;;9.29;74.06;101963.78;5107333;27;49884;-73
2022/10/09 07:34:46;;;;;;;;;9.00;9.00;;;;;9.34;73.39;101955.28;5107995;27;50298;-73
2022/10/09 07:37:11;;;;;;;;;7.50;7.50;;;;;8.99;73.56;101903.03;5107571;27;49802;-75
2022/10/09 07:39:38;;;;;;;;;12.00;11.50;;;;;9.21;73.86;101912.75;5106535;27;50044;-78
2022/10/09 07:42:03;;;;;;;;;7.50;7.50;;;;;9.42;73.45;101932.03;5107221;27;50062;-75
2022/10/09 07:44:29;;;;;;;;;12.00;11.50;;;;;9.61;73.64;101950.38;5111890;27;49604;-74
2022/10/09 07:46:54;;;;;;;;;12.75;10.25;;;;;9.70;73.26;101953.38;5095446;27;49775;-72
2022/10/09 07:49:20;;;;;;;;;10.25;10.25;;;;;9.34;72.04;101871.41;5089265;27;49796;-81
2022/10/09 07:51:45;;;;;;;;;10.25;10.25;;;;;9.40;72.15;101870.81;5100905;27;49803;-78
2022/10/09 07:54:14;;;;;;;;;9.50;9.50;;;;;9.59;71.74;101889.09;5077924;27;50040;-77
2022/10/09 07:56:39;;;;;;;;;10.00;8.00;;;;;9.95;71.47;101936.97;5098911;27;50389;-76
2022/10/09 07:59:10;;;;;;;;;11.00;10.25;;;;;10.06;71.58;101936.53;5087346;27;51201;-74
2022/10/09 08:01:35;;;;;;;;;13.00;11.00;;;;;9.80;71.11;101864.63;5107340;27;49633;-76
2022/10/09 08:04:02;;;;;;;;;10.75;9.75;;;;;10.22;71.30;101916.25;5100627;27;49806;-79
2022/10/09 08:06:28;;;;;;;;;14.00;13.25;;;;;10.25;70.62;101923.38;5094760;27;50009;-78
2022/10/09 08:08:57;;;;;;;;;11.00;10.00;;;;;10.30;69.95;101924.44;5108074;27;50462;-77
2022/10/09 08:11:24;;;;;;;;;8.00;8.00;;;;;10.26;70.39;101904.16;5071321;27;50160;-80
2022/10/09 08:13:50;;;;;;;;;9.75;8.75;;;;;10.47;69.89;101920.75;5099823;27;49810;-75
2022/10/09 08:16:16;;;;;;;;;8.50;8.50;;;;;10.42;69.38;101903.94;5100874;27;49840;-74
2022/10/09 08:18:42;;;;;;;;;9.00;8.00;;;;;10.60;69.17;101917.75;5098376;27;49919;-76
2022/10/09 08:21:10;;;;;;;;;12.75;10.75;;;;;10.67;69.08;101912.75;5098536;27;49900;-72
2022/10/09 08:23:36;;;;;;;;;13.75;12.25;;;;;10.43;68.36;101874.22;5086214;27;50265;-79
2022/10/09 08:26:02;;;;;;;;;11.75;10.75;;;;;10.56;68.87;101888.72;5084438;27;50065;-77
2022/10/09 08:28:27;;;;;;;;;12.50;10.00;;;;;10.81;67.65;101911.56;5066907;27;50485;-75
2022/10/09 08:30:53;;;;;;;;;8.50;8.50;;;;;10.52;68.03;101852.69;5086414;27;49806;-76
2022/10/09 08:33:20;;;;;;;;;10.25;9.00;;;;;10.93;68.77;101901.53;5086319;27;49682;-73
2022/10/09 08:35:48;;;;;;;;;13.00;10.50;;;;;11.01;67.30;101902.72;5076598;28;49625;-74
2022/10/09 08:38:14;;;;;;;;;14.25;12.00;;;;;10.94;67.04;101873.50;5058432;28;50416;-75
2022/10/09 08:40:51;;;;;;;;;10.75;9.50;;;;;11.15;66.69;101900.56;5056664;28;49776;-69
2022/10/09 08:43:22;;;;;;;;;8.75;8.75;;;;;11.09;67.31;101877.59;5051780;28;49801;-69
2022/10/09 08:45:50;;;;;;;;;9.75;9.75;;;;;11.30;66.40;101895.88;5053802;28;49697;-69
2022/10/09 08:48:20;;;;;;;;;14.50;12.75;;;;;11.34;66.79;101886.34;5053386;28;49911;-71
2022/10/09 08:50:49;;;;;;;;;10.75;9.25;;;;;11.09;65.67;101829.38;5053144;28;49693;-69
2022/10/09 08:53:18;;;;;;;;;14.75;12.50;;;;;11.53;65.67;101896.69;5053125;28;49818;-71
2022/10/09 08:55:52;;;;;;;;;17.00;14.00;;;;;11.27;65.41;101835.28;5060110;28;49876;-69
2022/10/09 08:58:20;;;;;;;;;11.00;10.50;;;;;11.47;65.49;101852.66;5066904;28;51181;-69
2022/10/09 09:00:54;;;;;;;;;10.75;10.25;;;;;11.66;64.69;101883.09;5072807;28;49780;-69
2022/10/09 09:03:37;;;;;;;;;11.00;10.00;;;;;11.73;64.75;101884.22;5072788;28;50517;-73
2022/10/09 09:06:13;;;;;;;;;15.00;11.50;;;;;11.77;64.44;101872.94;5073170;28;49780;-69
2022/10/09 09:09:09;;;;;;;;;15.75;11.00;;;;;11.81;64.74;101872.25;5072337;28;50601;-69
2022/10/09 09:11:53;;;;;;;;;10.75;10.50;;;;;11.84;64.49;101863.56;5070892;28;49917;-71
2022/10/09 09:14:49;;;;;;;;;13.25;13.25;;;;;11.78;65.30;101832.66;5053241;28;49784;-70
2022/10/09 09:17:40;;;;;;;;;17.50;15.00;;;;;11.89;64.84;101814.63;5067048;28;50100;-69
2022/10/09 09:20:26;;;;;;;;;11.25;10.75;;;;;12.09;64.25;101841.56;5051654;28;52212;-74
2022/10/09 09:22:51;;;;;;;;;15.00;15.00;;;;;12.19;63.93;101843.66;5072239;28;50006;-71
2022/10/09 09:25:23;;;;;;;;;15.50;14.00;;;;;12.13;64.22;101833.81;5067391;28;51506;-76
2022/10/09 09:27:51;;;;;;;;;11.50;11.00;;;;;12.35;63.79;101845.00;5056331;28;49758;-76
2022/10/09 09:30:22;;;;;;;;;13.00;13.00;;;;;12.48;63.52;101842.81;5072413;28;49664;-82
2022/10/09 09:33:05;;;;;;;;;13.25;12.00;;;;;12.37;63.15;101810.00;5069768;28;49907;-71
2022/10/09 09:38:56;;;;;;;;;16.00;15.50;;;;;12.63;62.36;101836.19;5348940;22;50178;-86
2022/10/09 09:41:21;;;;;;;;;7.25;6.25;;;;;11.68;62.53;101663.13;5045817;28;50710;-82
2022/10/09 09:43:48;;;;;;;;;12.75;12.75;;;;;12.25;62.42;101726.25;5034379;28;49699;-82
2022/10/09 09:46:20;;;;;;;;;13.00;13.00;;;;;12.46;62.80;101765.50;5034472;28;50231;-78
2022/10/09 09:48:47;;;;;;;;;15.25;11.25;;;;;12.80;62.23;101792.78;5028036;28;49779;-74
2022/10/09 09:51:34;;;;;;;;;14.75;14.00;;;;;12.80;62.22;101771.72;5031941;28;50410;-73
2022/10/09 09:54:14;;;;;;;;;13.75;12.00;;;;;13.08;61.95;101795.34;5032360;28;49799;-73
2022/10/09 09:56:47;;;;;;;;;13.25;11.00;;;;;13.15;61.17;101788.50;5031581;28;50071;-76
2022/10/09 09:59:36;;;;;;;;;15.00;14.00;;;;;13.26;61.76;101794.97;5029139;28;49888;-76
2022/10/09 10:02:31;;;;;;;;;13.25;13.00;;;;;13.41;61.64;101791.81;5029376;28;49975;-73
2022/10/09 10:04:59;;;;;;;;;17.25;16.50;;;;;13.36;61.17;101767.09;5020343;28;49766;-74
2022/10/09 10:07:32;;;;;;;;;15.25;14.00;;;;;12.79;60.84;101669.81;5025253;28;49886;-73
2022/10/09 10:10:16;;;;;;;;;5.25;5.25;;;;;13.50;60.86;101772.69;5030132;28;50256;-73
2022/10/09 10:12:56;;;;;;;;;15.00;11.00;;;;;13.57;60.64;101778.19;5029846;28;50652;-74
2022/10/09 10:15:32;;;;;;;;;14.00;14.00;;;;;13.32;61.02;101725.69;5029787;28;49742;-77
2022/10/09 10:18:04;;;;;;;;;13.50;13.50;;;;;13.43;60.63;101705.75;5025340;28;50076;-73
2022/10/09 10:20:42;;;;;;;;;9.00;9.00;;;;;13.71;60.24;101739.84;5027046;28;50075;-74
2022/10/09 10:23:26;;;;;;;;;12.25;10.25;;;;;13.90;60.14;101754.34;5031655;28;49778;-74
2022/10/09 10:25:56;;;;;;;;;13.00;12.25;;;;;13.94;59.70;101750.03;5030379;28;49735;-73
2022/10/09 10:28:29;;;;;;;;;13.25;12.00;;;;;13.90;59.88;101725.31;5032406;28;49781;-74
2022/10/09 10:30:58;;;;;;;;;15.25;13.75;;;;;14.15;59.27;101753.13;5031808;28;50386;-75
2022/10/09 10:33:28;;;;;;;;;11.00;10.00;;;;;14.21;59.29;101742.72;5029986;28;52597;-74
2022/10/09 10:35:56;;;;;;;;;12.00;11.00;;;;;14.22;58.96;101736.56;5031613;28;50025;-75
2022/10/09 10:38:51;;;;;;;;;13.25;10.50;;;;;14.35;60.07;101742.09;5030693;28;49822;-74
2022/10/09 10:41:29;;;;;;;;;16.75;14.50;;;;;14.41;59.01;101736.97;5030927;28;50484;-75
2022/10/09 10:44:05;;;;;;;;;13.00;11.50;;;;;14.42;59.26;101731.72;5031189;28;49731;-78
2022/10/09 10:46:38;;;;;;;;;11.00;11.00;;;;;14.35;59.41;101691.91;5031347;28;49775;-78
2022/10/09 10:49:06;;;;;;;;;7.50;7.00;;;;;14.35;58.01;101679.59;5031826;28;50424;-88
2022/10/09 10:51:48;;;;;;;;;5.25;5.25;;;;;14.53;58.54;101685.28;5031343;28;49540;-77
2022/10/09 10:54:19;;;;;;;;;7.75;5.25;;;;;14.78;58.75;101701.63;5031065;28;50504;-74
2022/10/09 10:56:54;;;;;;;;;5.25;5.25;;;;;14.76;58.53;101679.53;5030617;28;49904;-75
2022/10/09 10:59:59;;;;;;;;;6.50;6.50;;;;;14.94;58.39;101695.72;5031006;28;49657;-74
2022/10/09 11:03:01;;;;;;;;;7.25;7.00;;;;;15.05;57.31;101683.56;5024521;28;49930;-77
2022/10/09 11:05:39;;;;;;;;;7.25;5.50;;;;;15.05;57.10;101662.41;5030785;28;49724;-75
2022/10/09 11:08:16;;;;;;;;;7.75;7.00;;;;;15.21;56.83;101671.50;5030953;28;49876;-79
2022/10/09 11:10:47;;;;;;;;;5.00;4.00;;;;;15.25;56.85;101660.13;5030905;28;49795;-76
2022/10/09 11:13:21;;;;;;;;;4.75;4.75;;;;;15.36;56.95;101663.84;5031034;28;49744;-73
2022/10/09 11:16:21;;;;;;;;;5.25;4.00;;;;;15.53;56.35;101665.81;5029144;28;49752;-73
2022/10/09 11:19:05;;;;;;;;;2.25;2.25;;;;;15.62;55.94;101655.41;5030362;28;49702;-74
2022/10/09 11:22:32;;;;;;;;;3.00;3.00;;;;;15.72;55.91;101652.91;5030743;28;49761;-73
2022/10/09 11:25:15;;;;;;;;;4.75;3.00;;;;;15.83;55.81;101650.44;4968746;28;50083;-76
2022/10/09 11:27:50;;;;;;;;;4.25;3.50;;;;;15.88;55.16;101638.13;5018591;28;50959;-74
2022/10/09 11:30:17;;;;;;;;;4.75;4.75;;;;;15.97;55.12;101640.00;5030575;28;49892;-74
2022/10/09 11:32:56;;;;;;;;;5.00;5.00;;;;;15.91;55.49;101624.03;5030957;28;50028;-76
2022/10/09 11:35:41;;;;;;;;;6.00;5.50;;;;;16.09;55.26;101637.50;5029272;28;49588;-75
2022/10/09 11:38:38;;;;;;;;;6.50;6.00;;;;;16.18;54.54;101624.38;5030241;28;51420;-73
2022/10/09 11:41:05;;;;;;;;;4.00;3.50;;;;;16.27;54.13;101623.59;5023853;28;49868;-75
2022/10/09 11:44:09;;;;;;;;;3.50;3.50;;;;;16.37;54.26;101624.56;5023942;28;49704;-74
2022/10/09 11:46:43;;;;;;;;;6.75;4.25;;;;;16.40;53.68;101608.69;5030094;28;49705;-74
2022/10/09 11:49:25;;;;;;;;;4.00;4.00;;;;;16.37;54.08;101585.72;5030530;28;50567;-73
2022/10/09 11:52:16;;;;;;;;;4.25;4.25;;;;;16.57;53.97;101612.41;5024837;28;49933;-73
2022/10/09 11:54:42;;;;;;;;;4.00;4.00;;;;;16.52;53.51;101591.19;5029167;28;49840;-74
2022/10/09 11:57:08;;;;;;;;;7.00;6.00;;;;;16.64;53.69;101578.91;5030790;28;49807;-74
2022/10/09 11:59:36;;;;;;;;;3.25;3.25;;;;;16.77;52.53;101596.72;5030535;28;50527;-74
2022/10/09 12:02:25;;;;;;;;;4.25;4.00;;;;;16.77;52.56;101580.81;5030554;28;49897;-76
2022/10/09 12:04:51;;;;;;;;;4.00;4.00;;;;;16.83;52.30;101581.75;5030579;28;49662;-75
2022/10/09 12:07:35;;;;;;;;;5.00;5.00;;;;;16.89;52.45;101594.19;5030984;28;49796;-75
2022/10/09 12:10:05;;;;;;;;;4.50;4.50;;;;;16.73;52.60;101548.09;5033685;28;50702;-76
2022/10/09 12:12:32;;;;;;;;;2.25;2.25;;;;;16.81;52.32;101561.41;5033468;28;50006;-79
2022/10/09 12:15:10;;;;;;;;;6.50;4.00;;;;;16.82;52.06;101552.59;5033542;28;49676;-74
2022/10/09 12:17:46;;;;;;;;;4.00;4.00;;;;;16.88;51.87;101552.63;5033750;28;49830;-73
2022/10/09 12:20:19;;;;;;;;;5.75;4.50;;;;;16.88;51.88;101548.19;5033368;28;50266;-75
2022/10/09 12:22:49;;;;;;;;;4.00;4.00;;;;;16.96;52.10;101547.38;5033310;28;49777;-74
2022/10/09 12:25:39;;;;;;;;;3.00;3.00;;;;;16.99;51.86;101534.16;5033244;28;49838;-75
2022/10/09 12:28:14;;;;;;;;;4.00;4.00;;;;;17.10;51.47;101545.72;5028065;28;49975;-73
2022/10/09 12:30:44;;;;;;;;;6.50;5.00;;;;;16.91;51.01;101482.81;5033161;28;49859;-74
2022/10/09 12:33:20;;;;;;;;;4.00;3.00;;;;;17.36;51.18;101541.44;5033181;28;49765;-76
2022/10/09 12:35:56;;;;;;;;;6.75;4.25;;;;;17.25;50.73;101503.34;5031847;28;49981;-73
2022/10/09 12:38:28;;;;;;;;;3.75;3.75;;;;;17.33;50.38;101517.53;5033397;28;49697;-74
2022/10/09 12:40:56;;;;;;;;;4.00;3.00;;;;;17.47;50.58;101525.59;5032627;28;50906;-74
2022/10/09 12:43:22;;;;;;;;;2.00;2.00;;;;;17.32;51.14;101494.53;5033117;28;49861;-75
2022/10/09 12:45:50;;;;;;;;;4.00;4.00;;;;;17.42;50.90;101500.78;5031468;28;49723;-79
2022/10/09 12:48:20;;;;;;;;;5.00;5.00;;;;;17.54;50.40;101502.59;5032936;28;49807;-75
2022/10/09 12:50:45;;;;;;;;;4.25;4.25;;;;;17.58;50.30;101505.28;5033083;28;51150;-73
2022/10/09 12:53:13;;;;;;;;;5.00;4.00;;;;;17.64;50.88;101497.31;5032052;28;49858;-74
2022/10/09 12:55:42;;;;;;;;;4.50;4.50;;;;;17.45;51.20;101464.50;5031734;28;49720;-78
2022/10/09 12:58:17;;;;;;;;;4.25;3.25;;;;;17.66;50.79;101495.56;5031601;28;49814;-75
2022/10/09 13:00:48;;;;;;;;;3.75;3.75;;;;;17.56;50.94;101471.63;5032932;28;49811;-75
2022/10/09 13:03:35;;;;;;;;;5.25;3.50;;;;;17.76;50.47;101482.31;5031231;28;49934;-73
2022/10/09 13:06:04;;;;;;;;;4.50;3.75;;;;;17.82;50.11;101485.00;5032467;28;50213;-74
2022/10/09 13:08:33;;;;;;;;;5.25;2.75;;;;;17.48;49.81;101415.88;5032704;28;49950;-74
2022/10/09 13:11:07;;;;;;;;;5.00;3.75;;;;;17.84;49.61;101462.00;5031132;28;52437;-76
2022/10/09 13:13:33;;;;;;;;;3.00;2.50;;;;;17.53;50.01;101391.97;5031347;28;49648;-74
2022/10/09 13:16:05;;;;;;;;;4.00;3.00;;;;;17.85;49.77;101446.06;5031384;28;49811;-81
2022/10/09 13:18:31;;;;;;;;;4.00;2.25;;;;;17.83;49.90;101445.19;5032480;28;49746;-74
2022/10/09 13:21:26;;;;;;;;;4.25;3.25;;;;;17.92;49.32;101454.94;5032157;28;51132;-74
2022/10/09 13:23:51;;;;;;;;;2.50;2.50;;;;;17.91;48.56;101439.88;5026349;28;49620;-75
2022/10/09 13:26:24;;;;;;;;;0.00;0.00;;;;;18.06;48.42;101442.56;5032205;28;49684;-74
2022/10/09 13:28:50;;;;;;;;;3.00;3.00;;;;;17.78;48.10;101383.22;5032754;28;49797;-74
2022/10/09 13:31:17;;;;;;;;;3.75;3.75;;;;;17.82;48.61;101382.31;5031150;28;51959;-75
2022/10/09 13:33:43;;;;;;;;;3.00;3.00;;;;;18.27;48.40;101433.72;5030956;28;49617;-75
2022/10/09 13:36:11;;;;;;;;;2.75;2.75;;;;;18.34;47.76;101426.63;5027559;28;49760;-75
2022/10/09 13:38:37;;;;;;;;;3.25;3.25;;;;;18.24;48.34;101408.03;5032392;28;49817;-76
2022/10/09 13:41:03;;;;;;;;;2.25;2.25;;;;;18.46;47.93;101423.97;5031540;28;49747;-74
2022/10/09 13:43:29;;;;;;;;;3.50;3.50;;;;;18.42;47.26;101412.41;5031908;28;49727;-75
2022/10/09 13:45:55;;;;;;;;;4.00;4.00;;;;;18.51;47.15;101412.41;5032358;28;49769;-77
2022/10/09 13:48:20;;;;;;;;;3.50;3.00;;;;;18.26;46.99;101366.38;5032211;28;49947;-87
2022/10/09 13:50:46;;;;;;;;;3.00;3.00;;;;;18.37;46.66;101366.38;5032171;28;50901;-73
2022/10/09 13:53:11;;;;;;;;;3.00;2.75;;;;;17.51;47.17;101211.47;5010866;28;49904;-76
2022/10/09 13:55:37;;;;;;;;;2.75;2.00;;;;;18.62;47.54;101396.44;5029859;28;49832;-74
2022/10/09 13:58:02;;;;;;;;;2.00;2.00;;;;;18.57;46.68;101390.25;5032644;28;49795;-75
2022/10/09 14:00:28;;;;;;;;;5.50;2.75;;;;;18.30;47.08;101343.34;5033545;28;49876;-74
2022/10/09 14:02:53;;;;;;;;;6.00;5.00;;;;;18.59;46.37;101376.06;5032971;28;50038;-75
2022/10/09 14:05:18;;;;;;;;;5.75;5.75;;;;;18.62;46.68;101379.59;5033116;28;49810;-80
2022/10/09 14:07:44;;;;;;;;;3.00;3.00;;;;;18.65;46.72;101377.88;5033453;28;49932;-76
2022/10/09 14:10:09;;;;;;;;;3.50;2.50;;;;;18.12;46.51;101275.16;5032115;28;49795;-74
2022/10/09 14:12:35;;;;;;;;;3.50;2.25;;;;;17.88;46.04;101232.72;5033123;28;49739;-75
2022/10/09 14:15:00;;;;;;;;;4.00;4.00;;;;;18.72;45.95;101361.00;5030586;28;49802;-76
2022/10/09 14:17:25;;;;;;;;;3.00;3.00;;;;;18.70;46.28;101365.44;5032151;28;49971;-77
2022/10/09 14:19:51;;;;;;;;;2.00;2.00;;;;;18.45;45.75;101311.41;5031691;28;49746;-75
2022/10/09 14:22:16;;;;;;;;;3.50;3.00;;;;;18.75;45.83;101346.81;5032435;28;49958;-80
2022/10/09 14:24:42;;;;;;;;;4.00;2.75;;;;;18.75;45.70;101350.34;5025335;28;49709;-80
2022/10/09 14:27:07;;;;;;;;;3.00;3.00;;;;;18.72;45.54;101352.13;5031904;28;49726;-75
2022/10/09 14:29:33;;;;;;;;;5.50;3.75;;;;;18.70;46.11;101343.28;5031692;28;50702;-78
2022/10/09 14:31:58;;;;;;;;;3.25;3.00;;;;;18.47;45.23;101291.03;5031415;28;49765;-75
2022/10/09 14:34:23;;;;;;;;;3.00;3.00;;;;;18.65;44.90;101324.69;5031398;28;49866;-74
2022/10/09 14:36:49;;;;;;;;;3.00;3.00;;;;;18.56;44.86;101314.03;5029699;28;57864;-75
2022/10/09 14:39:15;;;;;;;;;1.50;1.50;;;;;18.50;45.04;101298.97;5031174;28;49768;-82
2022/10/09 14:41:40;;;;;;;;;5.50;4.25;;;;;18.68;45.08;101332.63;5031427;28;49780;-84
2022/10/09 14:44:07;;;;;;;;;5.00;3.00;;;;;18.57;45.13;101315.81;5031593;28;49914;-75
2022/10/09 14:46:33;;;;;;;;;5.75;3.50;;;;;18.43;44.67;101285.69;5030057;28;50028;-78
2022/10/09 14:49:00;;;;;;;;;4.75;4.00;;;;;18.66;45.21;101330.88;5031180;28;49679;-73
2022/10/09 14:51:26;;;;;;;;;3.00;3.00;;;;;18.67;46.36;101316.69;5032335;28;49819;-79
2022/10/09 14:53:57;;;;;;;;;3.25;3.25;;;;;17.89;46.23;101176.94;5031472;28;49932;-74
2022/10/09 14:56:22;;;;;;;;;2.00;2.00;;;;;18.22;46.20;101228.19;5030984;28;49744;-77
2022/10/09 14:58:48;;;;;;;;;6.00;3.25;;;;;18.42;46.99;101273.31;5031040;28;49648;-77
2022/10/09 15:01:17;;;;;;;;;4.00;4.00;;;;;18.66;45.20;101301.63;5030903;28;50586;-74
2022/10/09 15:03:42;;;;;;;;;3.00;2.00;;;;;18.28;45.68;101242.34;5031351;28;49775;-74
2022/10/09 15:06:10;;;;;;;;;4.00;4.00;;;;;18.47;45.49;101290.13;5031454;28;49787;-74
2022/10/09 15:08:38;;;;;;;;;5.00;3.25;;;;;18.38;46.20;101271.56;5029437;28;52414;-75
2022/10/09 15:11:04;;;;;;;;;8.25;6.00;;;;;17.79;46.13;101176.97;5030726;28;49843;-74
2022/10/09 15:13:32;;;;;;;;;4.00;4.00;;;;;17.24;46.41;101081.47;5030811;28;49764;-78
2022/10/09 15:16:04;;;;;;;;;5.75;4.00;;;;;17.74;46.77;101163.69;5031156;28;49764;-74
2022/10/09 15:18:29;;;;;;;;;3.75;3.75;;;;;18.35;46.04;101260.94;5030724;28;49747;-75
2022/10/09 15:20:56;;;;;;;;;4.50;3.75;;;;;18.48;45.72;101292.78;5030767;28;49870;-75
2022/10/09 15:23:21;;;;;;;;;3.25;3.00;;;;;18.37;45.82;101272.47;5031150;28;49697;-77
2022/10/09 15:25:52;;;;;;;;;2.75;2.75;;;;;18.29;46.51;101254.75;5031322;28;50020;-75
2022/10/09 15:28:18;;;;;;;;;5.75;4.00;;;;;18.49;46.97;101296.34;5030424;28;49960;-75
2022/10/09 15:30:50;;;;;;;;;4.25;4.00;;;;;17.51;47.22;101139.81;5030719;28;49944;-73
2022/10/09 15:33:16;;;;;;;;;2.00;1.00;;;;;18.30;47.65;101279.56;5030494;28;49994;-74
2022/10/09 15:35:42;;;;;;;;;3.50;3.50;;;;;18.37;47.74;101285.75;5030901;28;49840;-74
2022/10/09 15:38:14;;;;;;;;;4.00;3.00;;;;;17.60;47.60;101155.72;5030616;28;49885;-73
2022/10/09 15:40:43;;;;;;;;;4.00;3.50;;;;;18.14;48.67;101249.47;5030364;28;50107;-73
2022/10/09 15:43:11;;;;;;;;;5.00;4.50;;;;;18.12;48.09;101250.38;5032366;28;49646;-73
2022/10/09 15:45:37;;;;;;;;;4.00;4.00;;;;;18.08;48.35;101244.19;5034181;28;49674;-78
2022/10/09 15:48:02;;;;;;;;;6.75;5.25;;;;;18.20;48.69;101270.72;5033708;28;51438;-74
2022/10/09 15:50:27;;;;;;;;;3.25;3.25;;;;;18.13;48.54;101263.63;5034858;28;49846;-77
2022/10/09 15:52:55;;;;;;;;;4.50;3.50;;;;;18.18;48.52;101267.19;5034597;28;50004;-74
2022/10/09 15:55:21;;;;;;;;;4.25;4.00;;;;;18.14;48.24;101265.41;5034307;28;49905;-75
2022/10/09 15:57:47;;;;;;;;;6.75;6.75;;;;;17.95;48.67;101237.09;5034033;28;50158;-75
2022/10/09 16:00:14;;;;;;;;;5.00;5.00;;;;;18.10;48.87;101266.31;5032425;28;49865;-74
2022/10/09 16:02:40;;;;;;;;;2.50;2.50;;;;;17.83;48.69;101227.41;5033797;28;49826;-75
2022/10/09 16:05:05;;;;;;;;;6.25;4.50;;;;;17.67;48.96;101199.09;5034232;28;49695;-75
2022/10/09 16:07:31;;;;;;;;;4.75;4.75;;;;;18.02;48.86;101265.44;5033714;28;49819;-79
2022/10/09 16:09:56;;;;;;;;;4.25;4.25;;;;;17.76;48.68;101216.78;5033717;28;49742;-75
2022/10/09 16:12:22;;;;;;;;;5.00;5.00;;;;;17.98;48.76;101261.03;5033906;28;49717;-76
2022/10/09 16:14:47;;;;;;;;;6.50;3.50;;;;;17.90;49.19;101252.19;5034274;28;49842;-74
2022/10/09 16:17:12;;;;;;;;;3.75;3.75;;;;;17.60;49.39;101210.59;5033768;28;49935;-74
2022/10/09 16:19:38;;;;;;;;;4.00;4.00;;;;;17.84;49.88;101262.81;5032194;28;49811;-74
2022/10/09 16:22:04;;;;;;;;;5.00;4.75;;;;;17.80;49.96;101261.94;5033611;28;50155;-74
2022/10/09 16:24:30;;;;;;;;;4.75;4.25;;;;;17.55;50.53;101233.59;5033650;28;49824;-74
2022/10/09 16:26:56;;;;;;;;;4.25;4.25;;;;;17.68;50.42;101257.50;5033075;28;52342;-74
2022/10/09 16:29:21;;;;;;;;;6.50;5.50;;;;;17.63;50.91;101256.59;5033279;28;49678;-74
2022/10/09 16:31:47;;;;;;;;;5.00;5.00;;;;;17.59;51.02;101252.19;5033841;28;49959;-75
2022/10/09 16:34:12;;;;;;;;;6.00;5.00;;;;;17.09;51.02;101176.09;5033795;28;50002;-74
2022/10/09 16:36:37;;;;;;;;;7.25;5.25;;;;;17.53;51.12;101259.25;5033462;28;51810;-75
2022/10/09 16:39:02;;;;;;;;;2.75;2.75;;;;;17.48;51.48;101261.91;5033180;28;49679;-74
2022/10/09 16:41:28;;;;;;;;;6.25;5.00;;;;;17.12;51.92;101201.72;5033178;28;49667;-75
2022/10/09 16:43:55;;;;;;;;;6.00;4.50;;;;;17.38;52.05;101265.44;5033212;28;49915;-75
2022/10/09 16:46:24;;;;;;;;;7.00;6.00;;;;;17.31;52.54;101271.63;5033199;28;51245;-74
2022/10/09 16:48:51;;;;;;;;;6.00;6.00;;;;;17.27;52.22;101264.53;5032119;28;49976;-86
2022/10/09 16:51:20;;;;;;;;;6.25;5.25;;;;;17.04;52.72;101224.72;5033689;28;49791;-76
2022/10/09 16:53:54;;;;;;;;;5.00;4.50;;;;;17.16;52.97;101269.81;5033020;28;49507;-70
2022/10/09 16:56:22;;;;;;;;;5.00;3.75;;;;;16.96;53.64;101248.56;5033232;28;50708;-71
2022/10/09 16:58:48;;;;;;;;;6.00;4.25;;;;;17.03;53.53;101268.03;5026454;28;49703;-73
2022/10/09 17:01:14;;;;;;;;;6.25;6.25;;;;;16.95;53.71;101261.81;5033079;28;49646;-70
2022/10/09 17:03:40;;;;;;;;;6.50;6.50;;;;;16.78;54.09;101236.13;5033433;28;49829;-71
2022/10/09 17:06:15;;;;;;;;;5.25;5.25;;;;;16.87;54.22;101280.34;5032613;28;49873;-72
2022/10/09 17:08:40;;;;;;;;;5.00;4.50;;;;;16.37;54.76;101195.31;5032894;28;49622;-70
2022/10/09 17:11:07;;;;;;;;;5.25;5.25;;;;;16.61;55.26;101245.78;5033004;28;49929;-69
2022/10/09 17:13:32;;;;;;;;;5.00;5.00;;;;;16.65;55.16;101273.19;5032018;28;49990;-76
2022/10/09 17:15:58;;;;;;;;;7.25;5.00;;;;;16.45;55.87;101252.78;5033122;28;51544;-71
2022/10/09 17:18:23;;;;;;;;;8.00;8.00;;;;;16.47;56.31;101266.91;5032693;28;49873;-69
2022/10/09 17:20:48;;;;;;;;;6.75;6.75;;;;;16.41;56.57;101271.31;5030005;28;59669;-70
2022/10/09 17:23:14;;;;;;;;;6.75;5.25;;;;;16.25;56.83;101260.63;5032924;28;50085;-70
2022/10/09 17:25:40;;;;;;;;;6.00;6.00;;;;;16.27;57.14;101279.16;5032452;28;58886;-76
2022/10/09 17:28:06;;;;;;;;;6.25;5.75;;;;;16.18;56.75;101271.16;5032745;28;49944;-69
2022/10/09 17:30:37;;;;;;;;;7.00;6.50;;;;;15.44;57.53;101156.84;5031383;28;49882;-70
2022/10/09 17:33:02;;;;;;;;;4.75;4.75;;;;;15.96;57.90;101249.84;5032090;28;49926;-70
2022/10/09 17:35:27;;;;;;;;;6.00;6.00;;;;;15.96;58.42;101265.75;5037406;28;50611;-72
2022/10/09 17:37:55;;;;;;;;;7.50;6.25;;;;;15.95;59.00;101271.91;5032181;28;49860;-71
2022/10/09 17:40:21;;;;;;;;;11.25;8.50;;;;;15.86;60.05;101281.56;5025527;28;50151;-72
2022/10/09 17:42:46;;;;;;;;;12.50;12.25;;;;;15.41;60.13;101214.13;5031648;28;50045;-71
2022/10/09 17:45:11;;;;;;;;;6.75;6.75;;;;;15.74;60.78;101280.59;5031545;28;50273;-71
2022/10/09 17:47:37;;;;;;;;;13.25;11.50;;;;;15.68;61.01;101290.22;5032480;28;67482;-78
2022/10/09 17:50:03;;;;;;;;;12.25;9.00;;;;;15.14;61.08;101215.63;5031798;28;49672;-80
2022/10/09 17:52:42;;;;;;;;;12.50;10.75;;;;;15.34;61.53;101254.59;5031889;28;49875;-80
2022/10/09 17:55:08;;;;;;;;;9.50;9.50;;;;;15.49;62.03;101285.63;5030772;28;50498;-88
2022/10/09 17:57:33;;;;;;;;;9.00;8.50;;;;;15.21;62.11;101245.69;5033719;28;49662;-78
2022/10/09 17:59:58;;;;;;;;;10.00;9.00;;;;;15.38;62.14;101293.47;5028656;28;49792;-80
2022/10/09 18:02:24;;;;;;;;;9.00;9.00;;;;;15.32;62.71;101298.69;5034775;28;50141;-79
2022/10/09 18:04:49;;;;;;;;;10.00;10.00;;;;;15.27;63.18;101300.41;5031361;28;61698;-85
2022/10/09 18:07:18;;;;;;;;;10.75;10.00;;;;;14.35;63.49;101140.78;5030955;28;49927;-74
2022/10/09 18:09:43;;;;;;;;;12.75;11.75;;;;;15.17;63.52;101294.13;5029199;28;49856;-79
2022/10/09 18:12:09;;;;;;;;;14.25;11.75;;;;;15.12;63.61;101299.38;5046022;28;50042;-75
2022/10/09 18:14:34;;;;;;;;;11.75;11.75;;;;;15.07;63.92;101295.78;5030469;28;51054;-82
2022/10/09 18:16:59;;;;;;;;;9.50;9.25;;;;;14.67;64.56;101233.66;5030001;28;50320;-77
2022/10/09 18:19:25;;;;;;;;;11.00;10.25;;;;;14.98;64.70;101293.06;5032958;28;50013;-75
2022/10/09 18:22:09;;;;;;;;;11.75;11.50;;;;;14.78;64.88;101260.22;5043071;28;49569;-77
2022/10/09 18:27:09;;;;;;;;;11.25;11.00;;;;;14.12;65.17;101169.56;5325837;22;50010;-73
2022/10/09 18:29:35;;;;;;;;;9.00;9.00;;;;;13.86;65.06;101129.63;4990776;28;49887;-76
2022/10/09 18:32:01;;;;;;;;;8.00;7.50;;;;;14.61;65.30;101265.28;5003536;28;49794;-76
2022/10/09 18:34:27;;;;;;;;;15.75;15.50;;;;;14.69;66.22;101282.13;5003143;28;50212;-77
2022/10/09 18:36:53;;;;;;;;;16.00;15.50;;;;;14.66;66.58;101294.41;4981247;28;50005;-77
2022/10/09 18:39:20;;;;;;;;;16.75;15.75;;;;;14.46;66.38;101271.25;4996402;28;49849;-77
2022/10/09 18:41:46;;;;;;;;;19.75;17.50;;;;;14.35;67.22;101258.75;4992584;28;50545;-75
2022/10/09 18:44:18;;;;;;;;;17.75;14.75;;;;;14.18;67.20;101234.75;4992229;28;51776;-72
2022/10/09 18:46:50;;;;;;;;;16.50;15.75;;;;;14.35;67.58;101267.56;4989764;28;49683;-74
2022/10/09 18:49:28;;;;;;;;;18.50;16.75;;;;;14.37;67.74;101273.75;4998748;28;49873;-71
2022/10/09 18:51:55;;;;;;;;;19.00;17.50;;;;;13.75;67.92;101173.44;5006191;28;50304;-72
2022/10/09 18:54:23;;;;;;;;;17.75;15.50;;;;;14.03;68.30;101217.84;4989679;28;50692;-71
2022/10/09 18:56:49;;;;;;;;;18.00;16.75;;;;;14.33;67.87;101283.38;4990187;28;49876;-71
2022/10/09 18:59:19;;;;;;;;;8.00;8.00;;;;;14.31;67.80;101274.56;4974237;28;50147;-73
2022/10/09 19:01:44;;;;;;;;;22.25;16.75;;;;;14.12;67.82;101240.84;4992234;28;50008;-71
2022/10/09 19:04:10;;;;;;;;;15.25;14.50;;;;;14.09;68.35;101243.47;4990839;28;49873;-76